Terminal Aerodrome Forecast
Issued by NWS

Home | Current Version | Previous Version | Text Only | Print | Product List | Glossary On
Versions: 1 2 3 4 5 6 7 8 9 10 11 12 13 14 15 16 17 18 19 20 21 22 23 24 25 26 27 28 29 30 31 32 33 34 35 36 37 38 39 40 41 42
000
FTUS43 KDMX 261303 AAA
TAFMCW
TAF AMD
KMCW 261303Z 2613/2712 VRB03KT 1/4SM FG VV001
     FM261400 VRB03KT 2SM BR BKN002
     FM261500 12008KT P6SM VCSH BKN035
     FM261600 26005KT P6SM VCTS BKN060CB
     FM261900 27006KT P6SM SCT030 SCT100
     FM270400 30011G15KT P6SM SKC=

USA.gov is the U.S. government's official web portal to all federal, state and local government web resources and services.